sensor_id;sensor_type;location;lat;lon;timestamp;P1;durP1;ratioP1;P2;durP2;ratioP2
26181;SDS011;13927;51.534;11.866;2022-09-17T00:00:46;2.95;;;0.98;;
26181;SDS011;13927;51.534;11.866;2022-09-17T00:03:13;1.65;;;0.80;;
26181;SDS011;13927;51.534;11.866;2022-09-17T00:05:39;3.35;;;0.93;;
26181;SDS011;13927;51.534;11.866;2022-09-17T00:08:06;5.07;;;1.00;;
26181;SDS011;13927;51.534;11.866;2022-09-17T00:10:38;4.63;;;0.90;;
26181;SDS011;13927;51.534;11.866;2022-09-17T00:13:07;2.67;;;0.80;;
26181;SDS011;13927;51.534;11.866;2022-09-17T00:15:41;2.03;;;0.52;;
26181;SDS011;13927;51.534;11.866;2022-09-17T00:18:08;5.32;;;0.70;;
26181;SDS011;13927;51.534;11.866;2022-09-17T00:20:39;5.00;;;0.93;;
26181;SDS011;13927;51.534;11.866;2022-09-17T00:23:10;3.58;;;0.70;;
26181;SDS011;13927;51.534;11.866;2022-09-17T00:25:41;3.65;;;0.93;;
26181;SDS011;13927;51.534;11.866;2022-09-17T00:28:10;2.28;;;0.57;;
26181;SDS011;13927;51.534;11.866;2022-09-17T00:30:38;2.58;;;0.65;;
26181;SDS011;13927;51.534;11.866;2022-09-17T00:33:06;3.03;;;0.70;;
26181;SDS011;13927;51.534;11.866;2022-09-17T00:35:32;4.30;;;0.90;;
26181;SDS011;13927;51.534;11.866;2022-09-17T00:37:58;3.83;;;0.80;;
26181;SDS011;13927;51.534;11.866;2022-09-17T00:40:24;2.53;;;1.00;;
26181;SDS011;13927;51.534;11.866;2022-09-17T00:42:50;2.75;;;0.75;;
26181;SDS011;13927;51.534;11.866;2022-09-17T00:45:17;3.72;;;1.00;;
26181;SDS011;13927;51.534;11.866;2022-09-17T00:47:51;3.53;;;1.25;;
26181;SDS011;13927;51.534;11.866;2022-09-17T00:53:00;2.13;;;1.17;;
26181;SDS011;13927;51.534;11.866;2022-09-17T00:55:32;6.38;;;1.10;;
26181;SDS011;13927;51.534;11.866;2022-09-17T00:58:02;4.78;;;1.17;;
26181;SDS011;13927;51.534;11.866;2022-09-17T01:00:32;3.40;;;1.10;;
26181;SDS011;13927;51.534;11.866;2022-09-17T01:02:58;2.70;;;0.80;;
26181;SDS011;13927;51.534;11.866;2022-09-17T01:05:27;4.28;;;0.85;;
26181;SDS011;13927;51.534;11.866;2022-09-17T01:08:24;2.17;;;1.10;;
26181;SDS011;13927;51.534;11.866;2022-09-17T01:14:21;3.30;;;1.00;;
26181;SDS011;13927;51.534;11.866;2022-09-17T01:17:21;4.53;;;0.90;;
26181;SDS011;13927;51.534;11.866;2022-09-17T01:35:17;4.20;;;1.60;;
26181;SDS011;13927;51.534;11.866;2022-09-17T01:41:03;2.97;;;0.82;;
26181;SDS011;13927;51.534;11.866;2022-09-17T01:48:49;0.88;;;0.50;;
26181;SDS011;13927;51.534;11.866;2022-09-17T01:51:25;3.03;;;1.63;;
26181;SDS011;13927;51.534;11.866;2022-09-17T01:54:05;1.17;;;0.60;;
26181;SDS011;13927;51.534;11.866;2022-09-17T01:56:44;1.80;;;0.68;;
26181;SDS011;13927;51.534;11.866;2022-09-17T01:59:19;1.70;;;0.70;;
26181;SDS011;13927;51.534;11.866;2022-09-17T02:02:10;1.13;;;0.50;;
26181;SDS011;13927;51.534;11.866;2022-09-17T02:07:41;3.83;;;0.52;;
26181;SDS011;13927;51.534;11.866;2022-09-17T02:10:17;2.22;;;0.68;;
26181;SDS011;13927;51.534;11.866;2022-09-17T02:13:21;3.10;;;0.80;;
26181;SDS011;13927;51.534;11.866;2022-09-17T02:15:49;0.98;;;0.40;;
26181;SDS011;13927;51.534;11.866;2022-09-17T02:18:28;2.17;;;0.60;;
26181;SDS011;13927;51.534;11.866;2022-09-17T02:21:06;1.13;;;0.60;;
26181;SDS011;13927;51.534;11.866;2022-09-17T02:26:57;2.67;;;0.50;;
26181;SDS011;13927;51.534;11.866;2022-09-17T02:29:33;1.88;;;0.40;;
26181;SDS011;13927;51.534;11.866;2022-09-17T02:32:03;0.35;;;0.35;;
26181;SDS011;13927;51.534;11.866;2022-09-17T02:34:29;2.25;;;0.60;;
26181;SDS011;13927;51.534;11.866;2022-09-17T02:36:56;8.88;;;0.60;;
26181;SDS011;13927;51.534;11.866;2022-09-17T02:39:23;1.25;;;0.50;;
26181;SDS011;13927;51.534;11.866;2022-09-17T02:44:42;0.38;;;0.30;;
26181;SDS011;13927;51.534;11.866;2022-09-17T02:56:19;2.25;;;0.32;;
26181;SDS011;13927;51.534;11.866;2022-09-17T02:59:24;2.35;;;0.57;;
26181;SDS011;13927;51.534;11.866;2022-09-17T03:02:08;0.70;;;0.28;;
26181;SDS011;13927;51.534;11.866;2022-09-17T03:04:47;0.85;;;0.45;;
26181;SDS011;13927;51.534;11.866;2022-09-17T03:07:15;0.90;;;0.40;;
26181;SDS011;13927;51.534;11.866;2022-09-17T03:09:42;0.45;;;0.40;;
26181;SDS011;13927;51.534;11.866;2022-09-17T03:12:09;2.15;;;0.50;;
26181;SDS011;13927;51.534;11.866;2022-09-17T03:14:35;2.50;;;0.70;;
26181;SDS011;13927;51.534;11.866;2022-09-17T03:17:01;2.10;;;0.85;;
26181;SDS011;13927;51.534;11.866;2022-09-17T03:19:27;0.82;;;0.40;;
26181;SDS011;13927;51.534;11.866;2022-09-17T03:21:53;0.82;;;0.52;;
26181;SDS011;13927;51.534;11.866;2022-09-17T03:24:19;1.48;;;0.60;;
26181;SDS011;13927;51.534;11.866;2022-09-17T03:26:45;1.75;;;0.50;;
26181;SDS011;13927;51.534;11.866;2022-09-17T03:29:11;0.75;;;0.60;;
26181;SDS011;13927;51.534;11.866;2022-09-17T03:31:37;1.15;;;0.50;;
26181;SDS011;13927;51.534;11.866;2022-09-17T03:34:03;2.95;;;0.70;;
26181;SDS011;13927;51.534;11.866;2022-09-17T03:36:29;1.63;;;0.45;;
26181;SDS011;13927;51.534;11.866;2022-09-17T03:38:55;2.40;;;0.40;;
26181;SDS011;13927;51.534;11.866;2022-09-17T03:41:21;0.73;;;0.40;;
26181;SDS011;13927;51.534;11.866;2022-09-17T03:43:48;1.70;;;0.50;;
26181;SDS011;13927;51.534;11.866;2022-09-17T03:46:14;2.25;;;0.50;;
26181;SDS011;13927;51.534;11.866;2022-09-17T03:48:40;2.63;;;0.60;;
26181;SDS011;13927;51.534;11.866;2022-09-17T03:51:06;2.40;;;0.68;;
26181;SDS011;13927;51.534;11.866;2022-09-17T03:53:32;2.42;;;0.47;;
26181;SDS011;13927;51.534;11.866;2022-09-17T03:56:01;1.23;;;0.68;;
26181;SDS011;13927;51.534;11.866;2022-09-17T03:58:29;1.98;;;0.50;;
26181;SDS011;13927;51.534;11.866;2022-09-17T04:00:55;1.80;;;0.70;;
26181;SDS011;13927;51.534;11.866;2022-09-17T04:03:25;0.80;;;0.50;;
26181;SDS011;13927;51.534;11.866;2022-09-17T04:05:52;0.90;;;0.60;;
26181;SDS011;13927;51.534;11.866;2022-09-17T04:08:18;4.88;;;0.85;;
26181;SDS011;13927;51.534;11.866;2022-09-17T04:10:45;1.38;;;0.70;;
26181;SDS011;13927;51.534;11.866;2022-09-17T04:13:12;1.90;;;0.60;;
26181;SDS011;13927;51.534;11.866;2022-09-17T04:15:39;1.58;;;0.50;;
26181;SDS011;13927;51.534;11.866;2022-09-17T04:18:05;1.08;;;0.80;;
26181;SDS011;13927;51.534;11.866;2022-09-17T04:20:31;4.65;;;1.10;;
26181;SDS011;13927;51.534;11.866;2022-09-17T04:22:57;1.85;;;0.93;;
26181;SDS011;13927;51.534;11.866;2022-09-17T04:25:23;5.00;;;0.93;;
26181;SDS011;13927;51.534;11.866;2022-09-17T04:27:48;5.60;;;2.22;;
26181;SDS011;13927;51.534;11.866;2022-09-17T04:30:15;11.27;;;3.45;;
26181;SDS011;13927;51.534;11.866;2022-09-17T04:32:44;13.43;;;3.95;;
26181;SDS011;13927;51.534;11.866;2022-09-17T04:35:11;9.07;;;3.88;;
26181;SDS011;13927;51.534;11.866;2022-09-17T04:37:37;14.35;;;3.70;;
26181;SDS011;13927;51.534;11.866;2022-09-17T04:40:03;11.50;;;3.55;;
26181;SDS011;13927;51.534;11.866;2022-09-17T04:42:30;8.57;;;2.05;;
26181;SDS011;13927;51.534;11.866;2022-09-17T04:44:56;12.25;;;3.80;;
26181;SDS011;13927;51.534;11.866;2022-09-17T04:47:21;12.73;;;3.97;;
26181;SDS011;13927;51.534;11.866;2022-09-17T04:49:48;17.10;;;4.40;;
26181;SDS011;13927;51.534;11.866;2022-09-17T04:52:14;10.85;;;3.10;;
26181;SDS011;13927;51.534;11.866;2022-09-17T04:54:39;14.25;;;5.28;;
26181;SDS011;13927;51.534;11.866;2022-09-17T04:57:05;11.40;;;3.35;;
26181;SDS011;13927;51.534;11.866;2022-09-17T04:59:31;16.40;;;3.10;;
26181;SDS011;13927;51.534;11.866;2022-09-17T05:01:57;10.40;;;3.22;;
26181;SDS011;13927;51.534;11.866;2022-09-17T05:04:22;9.00;;;2.42;;
26181;SDS011;13927;51.534;11.866;2022-09-17T05:06:48;15.80;;;3.00;;
26181;SDS011;13927;51.534;11.866;2022-09-17T05:09:14;13.90;;;3.42;;
26181;SDS011;13927;51.534;11.866;2022-09-17T05:11:40;11.63;;;2.78;;
26181;SDS011;13927;51.534;11.866;2022-09-17T05:14:06;12.20;;;2.75;;
26181;SDS011;13927;51.534;11.866;2022-09-17T05:16:31;11.48;;;2.78;;
26181;SDS011;13927;51.534;11.866;2022-09-17T05:18:57;11.50;;;3.30;;
26181;SDS011;13927;51.534;11.866;2022-09-17T05:21:23;13.50;;;3.00;;
26181;SDS011;13927;51.534;11.866;2022-09-17T05:23:49;10.65;;;2.92;;
26181;SDS011;13927;51.534;11.866;2022-09-17T05:26:15;12.60;;;3.20;;
26181;SDS011;13927;51.534;11.866;2022-09-17T05:28:41;12.23;;;2.28;;
26181;SDS011;13927;51.534;11.866;2022-09-17T05:31:07;18.17;;;3.75;;
26181;SDS011;13927;51.534;11.866;2022-09-17T05:33:33;12.75;;;2.88;;
26181;SDS011;13927;51.534;11.866;2022-09-17T05:35:58;12.27;;;2.58;;
26181;SDS011;13927;51.534;11.866;2022-09-17T05:38:24;12.05;;;3.05;;
26181;SDS011;13927;51.534;11.866;2022-09-17T05:40:50;11.82;;;2.60;;
26181;SDS011;13927;51.534;11.866;2022-09-17T05:43:16;17.80;;;3.55;;
26181;SDS011;13927;51.534;11.866;2022-09-17T05:45:42;13.77;;;2.63;;
26181;SDS011;13927;51.534;11.866;2022-09-17T05:48:09;11.65;;;2.40;;
26181;SDS011;13927;51.534;11.866;2022-09-17T05:50:37;13.73;;;3.05;;
26181;SDS011;13927;51.534;11.866;2022-09-17T05:53:04;13.43;;;2.50;;
26181;SDS011;13927;51.534;11.866;2022-09-17T05:55:33;14.20;;;2.70;;
26181;SDS011;13927;51.534;11.866;2022-09-17T05:57:59;13.63;;;2.88;;
26181;SDS011;13927;51.534;11.866;2022-09-17T06:00:25;12.32;;;2.38;;
26181;SDS011;13927;51.534;11.866;2022-09-17T06:02:54;11.85;;;2.53;;
26181;SDS011;13927;51.534;11.866;2022-09-17T06:05:22;17.17;;;2.55;;
26181;SDS011;13927;51.534;11.866;2022-09-17T06:07:48;11.93;;;2.20;;
26181;SDS011;13927;51.534;11.866;2022-09-17T06:10:15;13.10;;;3.55;;
26181;SDS011;13927;51.534;11.866;2022-09-17T06:12:41;12.60;;;2.17;;
26181;SDS011;13927;51.534;11.866;2022-09-17T06:15:06;13.02;;;2.83;;
26181;SDS011;13927;51.534;11.866;2022-09-17T06:17:33;12.15;;;2.90;;
26181;SDS011;13927;51.534;11.866;2022-09-17T06:20:00;10.93;;;2.45;;
26181;SDS011;13927;51.534;11.866;2022-09-17T06:22:28;9.73;;;2.42;;
26181;SDS011;13927;51.534;11.866;2022-09-17T06:24:54;13.20;;;2.20;;
26181;SDS011;13927;51.534;11.866;2022-09-17T06:27:20;11.48;;;2.42;;
26181;SDS011;13927;51.534;11.866;2022-09-17T06:29:45;14.35;;;2.97;;
26181;SDS011;13927;51.534;11.866;2022-09-17T06:32:11;15.77;;;2.35;;
26181;SDS011;13927;51.534;11.866;2022-09-17T06:34:39;14.00;;;4.20;;
26181;SDS011;13927;51.534;11.866;2022-09-17T06:37:05;11.23;;;2.45;;
26181;SDS011;13927;51.534;11.866;2022-09-17T06:39:31;11.90;;;2.88;;
26181;SDS011;13927;51.534;11.866;2022-09-17T06:41:58;11.65;;;2.45;;
26181;SDS011;13927;51.534;11.866;2022-09-17T06:44:23;9.93;;;2.67;;
26181;SDS011;13927;51.534;11.866;2022-09-17T06:46:49;9.85;;;2.80;;
26181;SDS011;13927;51.534;11.866;2022-09-17T06:49:16;7.93;;;1.80;;
26181;SDS011;13927;51.534;11.866;2022-09-17T06:51:43;13.40;;;2.50;;
26181;SDS011;13927;51.534;11.866;2022-09-17T06:54:09;6.97;;;2.15;;
26181;SDS011;13927;51.534;11.866;2022-09-17T06:56:35;7.20;;;1.60;;
26181;SDS011;13927;51.534;11.866;2022-09-17T06:59:01;7.70;;;1.80;;
26181;SDS011;13927;51.534;11.866;2022-09-17T07:01:28;10.77;;;1.90;;
26181;SDS011;13927;51.534;11.866;2022-09-17T07:03:53;7.15;;;1.70;;
26181;SDS011;13927;51.534;11.866;2022-09-17T07:06:19;9.75;;;1.70;;
26181;SDS011;13927;51.534;11.866;2022-09-17T07:08:45;10.10;;;1.80;;
26181;SDS011;13927;51.534;11.866;2022-09-17T07:11:11;10.18;;;1.83;;
26181;SDS011;13927;51.534;11.866;2022-09-17T07:13:39;9.43;;;1.92;;
26181;SDS011;13927;51.534;11.866;2022-09-17T07:16:06;9.20;;;1.80;;
26181;SDS011;13927;51.534;11.866;2022-09-17T07:18:33;11.23;;;2.15;;
26181;SDS011;13927;51.534;11.866;2022-09-17T07:21:00;10.88;;;1.85;;
26181;SDS011;13927;51.534;11.866;2022-09-17T07:23:29;12.25;;;2.08;;
26181;SDS011;13927;51.534;11.866;2022-09-17T07:25:58;5.13;;;1.45;;
26181;SDS011;13927;51.534;11.866;2022-09-17T07:28:27;5.78;;;1.50;;
26181;SDS011;13927;51.534;11.866;2022-09-17T07:30:53;8.48;;;2.03;;
26181;SDS011;13927;51.534;11.866;2022-09-17T07:33:21;10.02;;;1.67;;
26181;SDS011;13927;51.534;11.866;2022-09-17T07:38:24;5.78;;;1.60;;
26181;SDS011;13927;51.534;11.866;2022-09-17T07:41:26;5.82;;;2.15;;
26181;SDS011;13927;51.534;11.866;2022-09-17T07:43:45;10.05;;;2.50;;
26181;SDS011;13927;51.534;11.866;2022-09-17T07:46:17;11.20;;;1.75;;
26181;SDS011;13927;51.534;11.866;2022-09-17T07:48:44;6.97;;;1.60;;
26181;SDS011;13927;51.534;11.866;2022-09-17T07:51:18;7.40;;;1.92;;
26181;SDS011;13927;51.534;11.866;2022-09-17T07:53:46;6.68;;;1.60;;
26181;SDS011;13927;51.534;11.866;2022-09-17T07:56:16;12.30;;;1.80;;
26181;SDS011;13927;51.534;11.866;2022-09-17T07:58:42;6.70;;;1.80;;
26181;SDS011;13927;51.534;11.866;2022-09-17T08:01:09;6.20;;;1.55;;
26181;SDS011;13927;51.534;11.866;2022-09-17T08:03:37;12.55;;;2.55;;
26181;SDS011;13927;51.534;11.866;2022-09-17T08:06:04;7.97;;;1.65;;
26181;SDS011;13927;51.534;11.866;2022-09-17T08:08:37;9.80;;;1.85;;
26181;SDS011;13927;51.534;11.866;2022-09-17T08:11:05;8.40;;;1.23;;
26181;SDS011;13927;51.534;11.866;2022-09-17T08:13:37;6.53;;;1.63;;
26181;SDS011;13927;51.534;11.866;2022-09-17T08:16:07;9.85;;;2.05;;
26181;SDS011;13927;51.534;11.866;2022-09-17T08:21:04;12.95;;;2.60;;
26181;SDS011;13927;51.534;11.866;2022-09-17T08:23:35;8.55;;;1.83;;
26181;SDS011;13927;51.534;11.866;2022-09-17T08:26:03;5.97;;;1.70;;
26181;SDS011;13927;51.534;11.866;2022-09-17T08:28:34;10.40;;;1.85;;
26181;SDS011;13927;51.534;11.866;2022-09-17T08:31:01;11.95;;;1.85;;
26181;SDS011;13927;51.534;11.866;2022-09-17T08:33:33;7.70;;;2.00;;
26181;SDS011;13927;51.534;11.866;2022-09-17T08:36:02;9.95;;;2.30;;
26181;SDS011;13927;51.534;11.866;2022-09-17T08:38:30;10.48;;;2.78;;
26181;SDS011;13927;51.534;11.866;2022-09-17T08:46:10;9.55;;;3.20;;
26181;SDS011;13927;51.534;11.866;2022-09-17T08:48:38;7.28;;;1.83;;
26181;SDS011;13927;51.534;11.866;2022-09-17T08:56:26;7.20;;;1.67;;
26181;SDS011;13927;51.534;11.866;2022-09-17T08:58:57;10.18;;;2.30;;
26181;SDS011;13927;51.534;11.866;2022-09-17T09:01:32;6.78;;;1.55;;
26181;SDS011;13927;51.534;11.866;2022-09-17T09:07:20;12.57;;;2.05;;
26181;SDS011;13927;51.534;11.866;2022-09-17T09:12:34;12.33;;;2.67;;
26181;SDS011;13927;51.534;11.866;2022-09-17T09:15:03;8.05;;;1.83;;
26181;SDS011;13927;51.534;11.866;2022-09-17T09:17:43;7.15;;;1.70;;
26181;SDS011;13927;51.534;11.866;2022-09-17T09:20:17;8.45;;;1.65;;
26181;SDS011;13927;51.534;11.866;2022-09-17T09:22:54;9.43;;;1.92;;
26181;SDS011;13927;51.534;11.866;2022-09-17T09:25:24;7.82;;;1.90;;
26181;SDS011;13927;51.534;11.866;2022-09-17T09:34:03;7.43;;;1.20;;
26181;SDS011;13927;51.534;11.866;2022-09-17T09:36:30;12.55;;;1.92;;
26181;SDS011;13927;51.534;11.866;2022-09-17T09:39:02;10.00;;;2.20;;
26181;SDS011;13927;51.534;11.866;2022-09-17T09:41:48;14.60;;;1.95;;
26181;SDS011;13927;51.534;11.866;2022-09-17T09:44:25;7.18;;;1.83;;
26181;SDS011;13927;51.534;11.866;2022-09-17T09:52:57;7.00;;;1.80;;
26181;SDS011;13927;51.534;11.866;2022-09-17T09:58:35;6.60;;;1.55;;
26181;SDS011;13927;51.534;11.866;2022-09-17T10:03:40;12.98;;;2.17;;
26181;SDS011;13927;51.534;11.866;2022-09-17T10:06:10;8.48;;;1.60;;
26181;SDS011;13927;51.534;11.866;2022-09-17T10:09:07;7.57;;;1.40;;
26181;SDS011;13927;51.534;11.866;2022-09-17T10:11:28;11.27;;;1.70;;
26181;SDS011;13927;51.534;11.866;2022-09-17T10:16:43;10.38;;;1.83;;
26181;SDS011;13927;51.534;11.866;2022-09-17T10:19:12;9.43;;;2.22;;
26181;SDS011;13927;51.534;11.866;2022-09-17T10:21:49;7.72;;;2.40;;
26181;SDS011;13927;51.534;11.866;2022-09-17T10:24:21;7.13;;;1.95;;
26181;SDS011;13927;51.534;11.866;2022-09-17T10:27:01;7.28;;;2.15;;
26181;SDS011;13927;51.534;11.866;2022-09-17T10:29:41;10.20;;;1.98;;
26181;SDS011;13927;51.534;11.866;2022-09-17T10:32:16;8.73;;;2.63;;
26181;SDS011;13927;51.534;11.866;2022-09-17T10:37:46;8.65;;;1.85;;
26181;SDS011;13927;51.534;11.866;2022-09-17T10:43:28;6.95;;;1.88;;
26181;SDS011;13927;51.534;11.866;2022-09-17T10:45:42;7.63;;;1.92;;
26181;SDS011;13927;51.534;11.866;2022-09-17T10:48:17;8.40;;;1.77;;
26181;SDS011;13927;51.534;11.866;2022-09-17T10:50:48;10.68;;;1.98;;
26181;SDS011;13927;51.534;11.866;2022-09-17T10:53:17;10.18;;;1.95;;
26181;SDS011;13927;51.534;11.866;2022-09-17T10:58:53;6.97;;;1.77;;
26181;SDS011;13927;51.534;11.866;2022-09-17T11:12:23;9.10;;;1.95;;
26181;SDS011;13927;51.534;11.866;2022-09-17T11:27:11;8.50;;;2.28;;
26181;SDS011;13927;51.534;11.866;2022-09-17T11:30:18;6.13;;;1.75;;
26181;SDS011;13927;51.534;11.866;2022-09-17T11:36:09;6.43;;;2.15;;
26181;SDS011;13927;51.534;11.866;2022-09-17T11:38:44;8.60;;;1.80;;
26181;SDS011;13927;51.534;11.866;2022-09-17T11:44:06;9.90;;;2.20;;
26181;SDS011;13927;51.534;11.866;2022-09-17T11:47:04;8.90;;;1.80;;
26181;SDS011;13927;51.534;11.866;2022-09-17T11:49:38;4.88;;;1.40;;
26181;SDS011;13927;51.534;11.866;2022-09-17T11:55:09;5.38;;;1.92;;
26181;SDS011;13927;51.534;11.866;2022-09-17T11:58:09;5.72;;;1.23;;
26181;SDS011;13927;51.534;11.866;2022-09-17T12:00:50;3.88;;;1.35;;
26181;SDS011;13927;51.534;11.866;2022-09-17T12:06:08;5.85;;;1.45;;
26181;SDS011;13927;51.534;11.866;2022-09-17T12:08:50;4.85;;;1.38;;
26181;SDS011;13927;51.534;11.866;2022-09-17T12:11:31;5.60;;;2.05;;
26181;SDS011;13927;51.534;11.866;2022-09-17T12:14:08;6.75;;;1.80;;
26181;SDS011;13927;51.534;11.866;2022-09-17T12:16:45;4.38;;;1.33;;
26181;SDS011;13927;51.534;11.866;2022-09-17T12:25:04;3.03;;;0.85;;
26181;SDS011;13927;51.534;11.866;2022-09-17T12:27:43;6.68;;;1.40;;
26181;SDS011;13927;51.534;11.866;2022-09-17T12:30:30;4.82;;;1.60;;
26181;SDS011;13927;51.534;11.866;2022-09-17T12:33:33;4.28;;;1.40;;
26181;SDS011;13927;51.534;11.866;2022-09-17T12:50:03;5.28;;;1.20;;
26181;SDS011;13927;51.534;11.866;2022-09-17T12:59:07;6.68;;;1.67;;
26181;SDS011;13927;51.534;11.866;2022-09-17T13:10:40;7.72;;;2.13;;
26181;SDS011;13927;51.534;11.866;2022-09-17T13:16:24;5.80;;;1.35;;
26181;SDS011;13927;51.534;11.866;2022-09-17T13:22:17;6.65;;;1.52;;
26181;SDS011;13927;51.534;11.866;2022-09-17T13:24:46;6.97;;;1.58;;
26181;SDS011;13927;51.534;11.866;2022-09-17T13:27:33;6.75;;;1.80;;
26181;SDS011;13927;51.534;11.866;2022-09-17T13:30:02;3.80;;;1.52;;
26181;SDS011;13927;51.534;11.866;2022-09-17T13:37:33;5.38;;;1.33;;
26181;SDS011;13927;51.534;11.866;2022-09-17T13:40:28;3.88;;;1.45;;
26181;SDS011;13927;51.534;11.866;2022-09-17T13:45:28;5.72;;;1.45;;
26181;SDS011;13927;51.534;11.866;2022-09-17T13:50:29;4.50;;;1.35;;
26181;SDS011;13927;51.534;11.866;2022-09-17T13:58:28;6.55;;;1.45;;
26181;SDS011;13927;51.534;11.866;2022-09-17T14:05:54;5.32;;;0.82;;
26181;SDS011;13927;51.534;11.866;2022-09-17T14:19:02;5.75;;;1.42;;
26181;SDS011;13927;51.534;11.866;2022-09-17T14:24:44;6.30;;;1.00;;
26181;SDS011;13927;51.534;11.866;2022-09-17T14:27:14;5.78;;;1.40;;
26181;SDS011;13927;51.534;11.866;2022-09-17T14:33:01;4.65;;;1.17;;
26181;SDS011;13927;51.534;11.866;2022-09-17T14:38:17;3.20;;;1.10;;
26181;SDS011;13927;51.534;11.866;2022-09-17T14:40:51;2.88;;;1.08;;
26181;SDS011;13927;51.534;11.866;2022-09-17T14:46:21;2.97;;;1.13;;
26181;SDS011;13927;51.534;11.866;2022-09-17T14:48:51;6.30;;;1.85;;
26181;SDS011;13927;51.534;11.866;2022-09-17T14:53:43;4.95;;;1.08;;
26181;SDS011;13927;51.534;11.866;2022-09-17T14:56:10;4.47;;;0.93;;
26181;SDS011;13927;51.534;11.866;2022-09-17T14:58:41;6.57;;;1.38;;
26181;SDS011;13927;51.534;11.866;2022-09-17T15:01:22;5.00;;;1.27;;
26181;SDS011;13927;51.534;11.866;2022-09-17T15:06:39;10.10;;;1.25;;
26181;SDS011;13927;51.534;11.866;2022-09-17T15:09:13;6.13;;;1.25;;
26181;SDS011;13927;51.534;11.866;2022-09-17T15:11:41;5.32;;;1.30;;
26181;SDS011;13927;51.534;11.866;2022-09-17T15:14:14;4.88;;;1.02;;
26181;SDS011;13927;51.534;11.866;2022-09-17T15:16:47;4.60;;;1.27;;
26181;SDS011;13927;51.534;11.866;2022-09-17T15:19:21;5.50;;;1.45;;
26181;SDS011;13927;51.534;11.866;2022-09-17T15:22:04;5.78;;;1.15;;
26181;SDS011;13927;51.534;11.866;2022-09-17T15:24:40;6.13;;;1.38;;
26181;SDS011;13927;51.534;11.866;2022-09-17T15:27:16;6.82;;;1.38;;
26181;SDS011;13927;51.534;11.866;2022-09-17T15:29:50;3.25;;;0.82;;
26181;SDS011;13927;51.534;11.866;2022-09-17T15:32:22;2.45;;;0.75;;
26181;SDS011;13927;51.534;11.866;2022-09-17T15:37:52;8.48;;;1.10;;
26181;SDS011;13927;51.534;11.866;2022-09-17T15:40:29;5.25;;;1.20;;
26181;SDS011;13927;51.534;11.866;2022-09-17T15:45:46;4.32;;;0.90;;
26181;SDS011;13927;51.534;11.866;2022-09-17T15:51:02;4.95;;;1.02;;
26181;SDS011;13927;51.534;11.866;2022-09-17T15:53:31;5.00;;;1.20;;
26181;SDS011;13927;51.534;11.866;2022-09-17T15:58:50;9.63;;;1.02;;
26181;SDS011;13927;51.534;11.866;2022-09-17T16:06:52;7.97;;;1.20;;
26181;SDS011;13927;51.534;11.866;2022-09-17T16:09:39;3.95;;;1.02;;
26181;SDS011;13927;51.534;11.866;2022-09-17T16:12:24;7.07;;;1.17;;
26181;SDS011;13927;51.534;11.866;2022-09-17T16:14:54;5.93;;;1.77;;
26181;SDS011;13927;51.534;11.866;2022-09-17T16:17:23;5.22;;;0.82;;
26181;SDS011;13927;51.534;11.866;2022-09-17T16:20:12;2.85;;;0.70;;
26181;SDS011;13927;51.534;11.866;2022-09-17T16:22:50;2.85;;;0.90;;
26181;SDS011;13927;51.534;11.866;2022-09-17T16:25:18;3.63;;;1.35;;
26181;SDS011;13927;51.534;11.866;2022-09-17T16:27:52;3.40;;;0.90;;
26181;SDS011;13927;51.534;11.866;2022-09-17T16:30:26;3.15;;;1.10;;
26181;SDS011;13927;51.534;11.866;2022-09-17T16:32:52;5.57;;;1.00;;
26181;SDS011;13927;51.534;11.866;2022-09-17T16:35:19;2.35;;;1.10;;
26181;SDS011;13927;51.534;11.866;2022-09-17T16:37:48;2.35;;;0.93;;
26181;SDS011;13927;51.534;11.866;2022-09-17T16:40:18;2.13;;;1.23;;
26181;SDS011;13927;51.534;11.866;2022-09-17T16:42:46;4.20;;;1.10;;
26181;SDS011;13927;51.534;11.866;2022-09-17T16:45:12;3.55;;;1.27;;
26181;SDS011;13927;51.534;11.866;2022-09-17T16:47:38;3.20;;;1.30;;
26181;SDS011;13927;51.534;11.866;2022-09-17T16:50:06;2.75;;;1.10;;
26181;SDS011;13927;51.534;11.866;2022-09-17T16:52:35;4.18;;;1.08;;
26181;SDS011;13927;51.534;11.866;2022-09-17T16:55:01;5.05;;;1.10;;
26181;SDS011;13927;51.534;11.866;2022-09-17T16:57:28;6.40;;;1.10;;
26181;SDS011;13927;51.534;11.866;2022-09-17T16:59:56;2.67;;;0.70;;
26181;SDS011;13927;51.534;11.866;2022-09-17T17:02:22;7.07;;;1.30;;
26181;SDS011;13927;51.534;11.866;2022-09-17T17:04:48;7.55;;;1.05;;
26181;SDS011;13927;51.534;11.866;2022-09-17T17:07:14;4.60;;;0.93;;
26181;SDS011;13927;51.534;11.866;2022-09-17T17:09:39;5.15;;;0.95;;
26181;SDS011;13927;51.534;11.866;2022-09-17T17:12:05;6.60;;;1.10;;
26181;SDS011;13927;51.534;11.866;2022-09-17T17:14:31;4.65;;;1.00;;
26181;SDS011;13927;51.534;11.866;2022-09-17T17:16:57;4.88;;;1.00;;
26181;SDS011;13927;51.534;11.866;2022-09-17T17:19:23;3.42;;;0.68;;
26181;SDS011;13927;51.534;11.866;2022-09-17T17:21:51;5.03;;;1.20;;
26181;SDS011;13927;51.534;11.866;2022-09-17T17:24:17;4.10;;;0.80;;
26181;SDS011;13927;51.534;11.866;2022-09-17T17:26:43;5.07;;;1.23;;
26181;SDS011;13927;51.534;11.866;2022-09-17T17:29:08;2.33;;;0.55;;
26181;SDS011;13927;51.534;11.866;2022-09-17T17:31:34;2.90;;;0.80;;
26181;SDS011;13927;51.534;11.866;2022-09-17T17:34:01;2.40;;;0.80;;
26181;SDS011;13927;51.534;11.866;2022-09-17T17:36:26;1.30;;;0.60;;
26181;SDS011;13927;51.534;11.866;2022-09-17T17:38:56;1.77;;;0.60;;
26181;SDS011;13927;51.534;11.866;2022-09-17T17:41:22;4.72;;;0.73;;
26181;SDS011;13927;51.534;11.866;2022-09-17T17:43:53;2.03;;;0.82;;
26181;SDS011;13927;51.534;11.866;2022-09-17T17:46:21;2.92;;;0.82;;
26181;SDS011;13927;51.534;11.866;2022-09-17T17:48:47;4.20;;;0.95;;
26181;SDS011;13927;51.534;11.866;2022-09-17T17:51:14;1.85;;;0.40;;
26181;SDS011;13927;51.534;11.866;2022-09-17T17:53:43;3.97;;;0.70;;
26181;SDS011;13927;51.534;11.866;2022-09-17T17:56:09;3.33;;;0.70;;
26181;SDS011;13927;51.534;11.866;2022-09-17T17:58:37;2.47;;;0.60;;
26181;SDS011;13927;51.534;11.866;2022-09-17T18:01:18;1.45;;;0.75;;
26181;SDS011;13927;51.534;11.866;2022-09-17T18:03:46;2.97;;;1.00;;
26181;SDS011;13927;51.534;11.866;2022-09-17T18:06:12;4.80;;;0.90;;
26181;SDS011;13927;51.534;11.866;2022-09-17T18:08:39;6.22;;;0.90;;
26181;SDS011;13927;51.534;11.866;2022-09-17T18:11:08;5.15;;;1.63;;
26181;SDS011;13927;51.534;11.866;2022-09-17T18:13:35;4.50;;;0.80;;
26181;SDS011;13927;51.534;11.866;2022-09-17T18:16:02;5.38;;;0.95;;
26181;SDS011;13927;51.534;11.866;2022-09-17T18:18:34;5.60;;;0.82;;
26181;SDS011;13927;51.534;11.866;2022-09-17T18:21:06;5.82;;;1.92;;
26181;SDS011;13927;51.534;11.866;2022-09-17T18:23:35;3.10;;;1.02;;
26181;SDS011;13927;51.534;11.866;2022-09-17T18:26:04;6.18;;;0.80;;
26181;SDS011;13927;51.534;11.866;2022-09-17T18:28:33;5.22;;;0.70;;
26181;SDS011;13927;51.534;11.866;2022-09-17T18:31:42;2.95;;;0.70;;
26181;SDS011;13927;51.534;11.866;2022-09-17T18:33:53;3.58;;;1.05;;
26181;SDS011;13927;51.534;11.866;2022-09-17T18:36:27;3.22;;;0.65;;
26181;SDS011;13927;51.534;11.866;2022-09-17T18:38:56;3.67;;;1.13;;
26181;SDS011;13927;51.534;11.866;2022-09-17T18:41:27;3.67;;;0.80;;
26181;SDS011;13927;51.534;11.866;2022-09-17T18:43:53;3.17;;;0.90;;
26181;SDS011;13927;51.534;11.866;2022-09-17T18:46:20;3.40;;;0.85;;
26181;SDS011;13927;51.534;11.866;2022-09-17T18:48:50;3.13;;;0.70;;
26181;SDS011;13927;51.534;11.866;2022-09-17T18:51:17;2.42;;;0.65;;